createdAt,value
2022-09-12T00:03:13.074Z,12.43
2022-09-12T00:08:20.300Z,10.18
2022-09-12T00:13:23.795Z,8.18
2022-09-12T00:18:27.779Z,8.07
2022-09-12T00:23:32.983Z,12.80
2022-09-12T00:28:38.367Z,6.05
2022-09-12T00:33:42.012Z,7.30
2022-09-12T00:38:46.722Z,9.52
2022-09-12T00:44:15.010Z,5.88
2022-09-12T00:49:35.575Z,6.20
2022-09-12T00:54:50.571Z,8.07
2022-09-12T01:00:03.033Z,10.88
2022-09-12T01:05:08.638Z,10.65
2022-09-12T01:10:13.418Z,6.13
2022-09-12T01:15:19.713Z,11.18
2022-09-12T01:20:26.166Z,10.50
2022-09-12T01:26:09.201Z,9.35
2022-09-12T01:31:24.844Z,8.77
2022-09-12T01:36:47.799Z,10.27
2022-09-12T01:42:12.401Z,9.15
2022-09-12T01:47:28.286Z,5.95
2022-09-12T01:52:46.132Z,9.02
2022-09-12T01:58:03.707Z,10.13
2022-09-12T02:03:16.950Z,10.10
2022-09-12T02:08:31.734Z,5.45
2022-09-12T02:13:42.012Z,10.23
2022-09-12T02:18:53.410Z,13.27
2022-09-12T02:24:01.803Z,8.38
2022-09-12T02:29:05.552Z,6.53
2022-09-12T02:34:10.896Z,9.25
2022-09-12T02:39:14.235Z,12.82
2022-09-12T02:44:18.221Z,6.90
2022-09-12T02:49:22.383Z,7.82
2022-09-12T02:54:25.910Z,7.75
2022-09-12T02:59:29.363Z,8.60
2022-09-12T03:04:41.811Z,14.82
2022-09-12T03:10:03.234Z,7.40
2022-09-12T03:15:40.475Z,6.60
2022-09-12T03:20:49.423Z,7.65
2022-09-12T03:26:09.821Z,5.70
2022-09-12T03:31:16.542Z,7.00
2022-09-12T03:36:30.491Z,7.03
2022-09-12T03:41:34.288Z,11.77
2022-09-12T03:46:37.677Z,7.10
2022-09-12T03:51:41.326Z,6.80
2022-09-12T03:56:44.847Z,9.40
2022-09-12T04:01:47.970Z,11.27
2022-09-12T04:06:50.993Z,10.18
2022-09-12T04:11:54.285Z,10.00
2022-09-12T04:16:57.543Z,8.25
2022-09-12T04:22:00.810Z,10.88
2022-09-12T04:27:07.682Z,8.82
2022-09-12T04:32:11.178Z,9.38
2022-09-12T04:37:14.574Z,9.88
2022-09-12T04:42:18.133Z,8.00
2022-09-12T04:47:21.220Z,12.32
2022-09-12T04:52:24.585Z,9.73
2022-09-12T04:57:30.099Z,9.73
2022-09-12T05:02:34.568Z,9.23
2022-09-12T05:07:38.223Z,7.07
2022-09-12T05:12:41.727Z,13.35
2022-09-12T05:17:45.582Z,10.63
2022-09-12T05:22:48.992Z,13.02
2022-09-12T05:27:54.981Z,17.52
2022-09-12T05:32:58.188Z,10.27
2022-09-12T05:38:01.747Z,15.10
2022-09-12T05:43:05.409Z,6.75
2022-09-12T05:48:09.311Z,11.75
2022-09-12T05:53:12.670Z,7.75
2022-09-12T05:58:16.600Z,12.93
2022-09-12T06:03:20.189Z,10.68
2022-09-12T06:08:25.170Z,7.28
2022-09-12T06:13:36.561Z,4.60
2022-09-12T06:18:40.936Z,8.80
2022-09-12T06:23:45.204Z,8.20
2022-09-12T06:28:48.718Z,9.10
2022-09-12T06:33:54.736Z,14.63
2022-09-12T06:39:04.245Z,9.05
2022-09-12T06:44:12.663Z,11.40
2022-09-12T06:49:15.974Z,5.90
2022-09-12T06:54:19.109Z,15.32
2022-09-12T06:59:22.387Z,8.30
2022-09-12T07:04:30.063Z,11.05
2022-09-12T07:09:33.839Z,7.15
2022-09-12T07:14:37.258Z,8.80
2022-09-12T07:19:41.048Z,5.60
2022-09-12T07:24:44.654Z,9.57
2022-09-12T07:29:48.061Z,6.07
2022-09-12T07:34:51.660Z,5.72
2022-09-12T07:39:55.164Z,7.88
2022-09-12T07:44:59.334Z,9.02
2022-09-12T07:50:04.447Z,6.28
2022-09-12T07:55:09.610Z,9.80
2022-09-12T08:00:15.253Z,6.40
2022-09-12T08:05:20.823Z,9.63
2022-09-12T08:10:25.245Z,8.13
2022-09-12T08:15:28.705Z,10.50
2022-09-12T08:20:32.396Z,9.43
2022-09-12T08:25:35.813Z,9.88
2022-09-12T08:30:39.325Z,9.05
2022-09-12T08:35:43.192Z,9.57
2022-09-12T08:41:04.354Z,10.43
2022-09-12T08:46:23.092Z,6.28
2022-09-12T08:51:27.867Z,11.07
2022-09-12T08:56:36.630Z,9.65
2022-09-12T09:01:46.070Z,15.27
2022-09-12T09:07:14.135Z,5.60
2022-09-12T09:12:35.193Z,7.22
2022-09-12T09:18:01.866Z,6.13
2022-09-12T09:23:13.195Z,6.43
2022-09-12T09:28:23.284Z,11.77
2022-09-12T09:33:34.058Z,5.38
2022-09-12T09:39:01.750Z,4.45
2022-09-12T09:44:05.740Z,6.22
2022-09-12T09:49:14.228Z,6.78
2022-09-12T09:54:24.950Z,9.10
2022-09-12T09:59:30.612Z,9.85
2022-09-12T10:04:41.434Z,9.90
2022-09-12T10:10:13.792Z,8.45
2022-09-12T10:15:18.816Z,13.38
2022-09-12T10:20:37.804Z,11.27
2022-09-12T10:25:41.508Z,15.95
2022-09-12T10:30:53.304Z,19.30
2022-09-12T10:35:56.943Z,17.33
2022-09-12T10:41:05.676Z,14.48
2022-09-12T10:46:15.167Z,8.88
2022-09-12T10:51:24.542Z,6.82
2022-09-12T10:56:44.352Z,8.45
2022-09-12T11:02:16.295Z,8.05
2022-09-12T11:07:42.406Z,7.50
2022-09-12T11:13:23.361Z,8.85
2022-09-12T11:18:45.576Z,9.82
2022-09-12T11:24:23.050Z,7.50
2022-09-12T11:29:40.706Z,7.03
2022-09-12T11:35:18.336Z,5.18
2022-09-12T11:40:27.940Z,6.13
2022-09-12T11:45:41.424Z,16.27
2022-09-12T11:50:44.554Z,14.55
2022-09-12T11:56:14.803Z,5.00
2022-09-12T12:01:28.251Z,9.40
2022-09-12T12:06:37.576Z,18.60
2022-09-12T12:11:48.985Z,13.48
2022-09-12T12:16:53.116Z,14.25
2022-09-12T12:22:24.318Z,18.25
2022-09-12T12:27:48.215Z,19.77
2022-09-12T12:32:51.550Z,33.28
2022-09-12T12:37:56.696Z,44.00
2022-09-12T12:43:05.346Z,14.25
2022-09-12T12:48:14.472Z,20.75
2022-09-12T12:53:25.611Z,7.15
2022-09-12T12:58:36.776Z,7.32
2022-09-12T13:04:06.397Z,10.48
2022-09-12T13:09:31.373Z,6.60
2022-09-12T13:14:47.167Z,7.53
2022-09-12T13:20:10.602Z,16.98
2022-09-12T13:25:19.786Z,10.55
2022-09-12T13:30:23.144Z,5.13
2022-09-12T13:35:59.626Z,7.90
2022-09-12T13:41:18.362Z,6.20
2022-09-12T13:46:31.842Z,4.97
2022-09-12T13:51:35.673Z,7.55
2022-09-12T13:56:47.904Z,5.00
2022-09-12T14:01:51.375Z,6.35
2022-09-12T14:06:55.605Z,5.90
2022-09-12T14:11:59.736Z,13.07
2022-09-12T14:17:18.979Z,11.40
2022-09-12T14:22:27.444Z,9.60
2022-09-12T14:27:42.787Z,6.72
2022-09-12T14:33:10.244Z,6.35
2022-09-12T14:38:16.996Z,9.40
2022-09-12T14:43:35.033Z,13.38
2022-09-12T14:48:44.901Z,12.75
2022-09-12T14:53:49.393Z,7.70
2022-09-12T14:59:30.995Z,12.40
2022-09-12T15:09:47.347Z,9.65
2022-09-12T15:14:52.023Z,13.90
2022-09-12T15:19:58.483Z,11.70
2022-09-12T15:25:01.923Z,16.65
2022-09-12T15:30:07.063Z,14.90
2022-09-12T15:35:18.601Z,11.68
2022-09-12T15:40:22.177Z,13.63
2022-09-12T15:45:28.335Z,11.48
2022-09-12T15:50:33.000Z,14.82
2022-09-12T15:55:36.634Z,14.07
2022-09-12T16:00:39.913Z,14.20
2022-09-12T16:05:43.319Z,17.92
2022-09-12T16:10:49.784Z,12.77
2022-09-12T16:15:57.631Z,13.13
2022-09-12T16:21:00.983Z,13.00
2022-09-12T16:26:06.414Z,17.63
2022-09-12T16:31:13.687Z,19.85
2022-09-12T16:36:19.584Z,18.48
2022-09-12T16:41:24.650Z,17.55
2022-09-12T16:46:28.611Z,20.00
2022-09-12T16:51:34.460Z,23.40
2022-09-12T16:56:37.747Z,13.68
2022-09-12T17:01:41.620Z,14.65
2022-09-12T17:06:45.669Z,16.55
2022-09-12T17:11:49.264Z,19.45
2022-09-12T17:16:52.618Z,18.52
2022-09-12T17:21:56.929Z,15.02
2022-09-12T17:27:00.864Z,19.38
2022-09-12T17:32:06.284Z,18.33
2022-09-12T17:37:13.916Z,20.85
2022-09-12T17:42:17.311Z,22.50
2022-09-12T17:47:20.607Z,23.58
2022-09-12T17:52:24.667Z,23.05
2022-09-12T17:57:28.404Z,20.67
2022-09-12T18:02:33.330Z,16.05
2022-09-12T18:07:40.896Z,18.00
2022-09-12T18:12:46.871Z,18.83
2022-09-12T18:17:50.329Z,16.77
2022-09-12T18:22:56.551Z,19.17
2022-09-12T18:28:07.228Z,25.48
2022-09-12T18:33:13.228Z,24.50
2022-09-12T18:38:16.566Z,21.95
2022-09-12T18:43:20.407Z,28.40
2022-09-12T18:48:23.902Z,23.45
2022-09-12T18:53:27.244Z,17.13
2022-09-12T18:58:30.504Z,22.48
2022-09-12T19:03:33.779Z,27.95
2022-09-12T19:08:37.685Z,15.30
2022-09-12T19:13:43.948Z,23.90
2022-09-12T19:18:49.270Z,26.25
2022-09-12T19:23:56.981Z,21.70
2022-09-12T19:29:01.019Z,21.20
2022-09-12T19:34:06.170Z,30.08
2022-09-12T19:39:10.043Z,27.10
2022-09-12T19:44:13.424Z,20.35
2022-09-12T19:49:17.642Z,20.23
2022-09-12T19:54:21.822Z,34.10
2022-09-12T19:59:25.414Z,36.35
2022-09-12T20:04:29.029Z,33.20
2022-09-12T20:09:34.008Z,24.02
2022-09-12T20:14:37.160Z,30.92
2022-09-12T20:19:40.444Z,26.83
2022-09-12T20:24:43.813Z,29.02
2022-09-12T20:29:47.134Z,27.95
2022-09-12T20:34:51.596Z,22.40
2022-09-12T20:39:55.114Z,27.25
2022-09-12T20:44:59.110Z,27.50
2022-09-12T20:50:06.754Z,33.22
2022-09-12T20:55:10.570Z,26.25
2022-09-12T21:00:14.295Z,21.95
2022-09-12T21:05:18.096Z,28.05
2022-09-12T21:10:21.739Z,22.42
2022-09-12T21:15:25.000Z,18.95
2022-09-12T21:20:28.699Z,23.05
2022-09-12T21:25:32.614Z,22.02
2022-09-12T21:30:35.647Z,29.65
2022-09-12T21:35:38.869Z,28.10
2022-09-12T21:40:42.258Z,25.33
2022-09-12T21:45:46.294Z,19.45
2022-09-12T21:50:53.021Z,30.30
2022-09-12T21:56:05.172Z,21.92
2022-09-12T22:01:11.420Z,19.10
2022-09-12T22:06:19.553Z,19.50
2022-09-12T22:11:25.420Z,27.58
2022-09-12T22:16:29.232Z,21.80
2022-09-12T22:21:32.797Z,23.25
2022-09-12T22:26:44.388Z,25.90
2022-09-12T22:31:48.182Z,31.08
2022-09-12T22:36:51.461Z,28.15
2022-09-12T22:41:54.845Z,18.40
2022-09-12T22:46:58.349Z,23.42
2022-09-12T22:52:01.954Z,24.40
2022-09-12T22:57:05.543Z,26.23
2022-09-12T23:02:08.986Z,22.70
2022-09-12T23:07:13.009Z,28.00
2022-09-12T23:12:16.420Z,32.78
2022-09-12T23:17:19.676Z,33.03
2022-09-12T23:22:23.536Z,24.45
2022-09-12T23:27:27.748Z,25.90
2022-09-12T23:32:32.016Z,37.25
2022-09-12T23:37:35.417Z,34.15
2022-09-12T23:42:39.067Z,26.00
2022-09-12T23:47:42.348Z,32.38
2022-09-12T23:52:45.774Z,25.63
2022-09-12T23:57:49.641Z,24.27
